sensor_id;sensor_type;location;lat;lon;timestamp;P1;durP1;ratioP1;P2;durP2;ratioP2
65737;SDS011;52478;51.844;6.582;2023-10-31T00:00:49;4.93;;;1.70;;
65737;SDS011;52478;51.844;6.582;2023-10-31T00:05:44;5.18;;;1.50;;
65737;SDS011;52478;51.844;6.582;2023-10-31T00:08:10;5.15;;;1.60;;
65737;SDS011;52478;51.844;6.582;2023-10-31T00:10:37;4.70;;;1.42;;
65737;SDS011;52478;51.844;6.582;2023-10-31T00:13:03;4.85;;;1.52;;
65737;SDS011;52478;51.844;6.582;2023-10-31T00:15:30;5.32;;;1.80;;
65737;SDS011;52478;51.844;6.582;2023-10-31T00:17:56;5.22;;;1.50;;
65737;SDS011;52478;51.844;6.582;2023-10-31T00:20:23;4.95;;;1.38;;
65737;SDS011;52478;51.844;6.582;2023-10-31T00:22:51;4.78;;;1.50;;
65737;SDS011;52478;51.844;6.582;2023-10-31T00:25:17;4.60;;;1.45;;
65737;SDS011;52478;51.844;6.582;2023-10-31T00:27:44;5.03;;;1.50;;
65737;SDS011;52478;51.844;6.582;2023-10-31T00:30:11;4.80;;;1.40;;
65737;SDS011;52478;51.844;6.582;2023-10-31T00:32:38;4.97;;;1.40;;
65737;SDS011;52478;51.844;6.582;2023-10-31T00:35:05;3.70;;;1.20;;
65737;SDS011;52478;51.844;6.582;2023-10-31T00:39:59;4.97;;;1.30;;
65737;SDS011;52478;51.844;6.582;2023-10-31T00:42:26;4.65;;;1.30;;
65737;SDS011;52478;51.844;6.582;2023-10-31T00:44:52;4.85;;;1.30;;
65737;SDS011;52478;51.844;6.582;2023-10-31T00:47:18;3.67;;;1.20;;
65737;SDS011;52478;51.844;6.582;2023-10-31T00:49:45;4.65;;;1.25;;
65737;SDS011;52478;51.844;6.582;2023-10-31T00:52:12;4.78;;;1.15;;
65737;SDS011;52478;51.844;6.582;2023-10-31T00:54:38;4.43;;;1.20;;
65737;SDS011;52478;51.844;6.582;2023-10-31T00:57:06;6.32;;;1.30;;
65737;SDS011;52478;51.844;6.582;2023-10-31T00:59:33;4.07;;;1.17;;
65737;SDS011;52478;51.844;6.582;2023-10-31T01:01:59;4.00;;;1.08;;
65737;SDS011;52478;51.844;6.582;2023-10-31T01:04:26;4.22;;;1.10;;
65737;SDS011;52478;51.844;6.582;2023-10-31T01:06:52;2.63;;;0.90;;
65737;SDS011;52478;51.844;6.582;2023-10-31T01:09:19;2.42;;;0.80;;
65737;SDS011;52478;51.844;6.582;2023-10-31T01:11:45;3.15;;;1.00;;
65737;SDS011;52478;51.844;6.582;2023-10-31T01:14:13;4.03;;;1.08;;
65737;SDS011;52478;51.844;6.582;2023-10-31T01:16:40;4.00;;;1.08;;
65737;SDS011;52478;51.844;6.582;2023-10-31T01:19:06;3.97;;;1.20;;
65737;SDS011;52478;51.844;6.582;2023-10-31T01:21:33;4.85;;;1.15;;
65737;SDS011;52478;51.844;6.582;2023-10-31T01:23:59;7.38;;;1.10;;
65737;SDS011;52478;51.844;6.582;2023-10-31T01:26:26;2.95;;;0.82;;
65737;SDS011;52478;51.844;6.582;2023-10-31T01:28:52;3.38;;;1.00;;
65737;SDS011;52478;51.844;6.582;2023-10-31T01:31:20;3.78;;;1.10;;
65737;SDS011;52478;51.844;6.582;2023-10-31T01:33:47;4.10;;;1.00;;
65737;SDS011;52478;51.844;6.582;2023-10-31T01:36:13;3.05;;;0.90;;
65737;SDS011;52478;51.844;6.582;2023-10-31T01:38:40;4.22;;;1.10;;
65737;SDS011;52478;51.844;6.582;2023-10-31T01:41:07;3.30;;;1.00;;
65737;SDS011;52478;51.844;6.582;2023-10-31T01:43:34;3.55;;;1.10;;
65737;SDS011;52478;51.844;6.582;2023-10-31T01:46:02;3.33;;;1.00;;
65737;SDS011;52478;51.844;6.582;2023-10-31T01:50:58;4.10;;;0.90;;
65737;SDS011;52478;51.844;6.582;2023-10-31T01:53:26;3.90;;;1.00;;
65737;SDS011;52478;51.844;6.582;2023-10-31T01:55:54;3.33;;;0.90;;
65737;SDS011;52478;51.844;6.582;2023-10-31T01:58:23;4.38;;;1.10;;
65737;SDS011;52478;51.844;6.582;2023-10-31T02:00:54;8.27;;;1.10;;
65737;SDS011;52478;51.844;6.582;2023-10-31T02:05:49;2.90;;;0.93;;
65737;SDS011;52478;51.844;6.582;2023-10-31T02:08:17;4.75;;;1.10;;
65737;SDS011;52478;51.844;6.582;2023-10-31T02:10:43;3.08;;;0.90;;
65737;SDS011;52478;51.844;6.582;2023-10-31T02:13:10;4.72;;;1.10;;
65737;SDS011;52478;51.844;6.582;2023-10-31T02:15:37;3.08;;;0.85;;
65737;SDS011;52478;51.844;6.582;2023-10-31T02:18:04;4.18;;;0.90;;
65737;SDS011;52478;51.844;6.582;2023-10-31T02:20:31;4.18;;;1.00;;
65737;SDS011;52478;51.844;6.582;2023-10-31T02:22:59;4.65;;;1.00;;
65737;SDS011;52478;51.844;6.582;2023-10-31T02:25:26;4.30;;;1.20;;
65737;SDS011;52478;51.844;6.582;2023-10-31T02:27:52;4.80;;;1.17;;
65737;SDS011;52478;51.844;6.582;2023-10-31T02:30:19;4.30;;;1.02;;
65737;SDS011;52478;51.844;6.582;2023-10-31T02:32:46;4.13;;;1.00;;
65737;SDS011;52478;51.844;6.582;2023-10-31T02:35:13;3.05;;;1.00;;
65737;SDS011;52478;51.844;6.582;2023-10-31T02:37:40;4.47;;;1.15;;
65737;SDS011;52478;51.844;6.582;2023-10-31T02:40:08;4.78;;;1.10;;
65737;SDS011;52478;51.844;6.582;2023-10-31T02:42:36;3.50;;;1.13;;
65737;SDS011;52478;51.844;6.582;2023-10-31T02:45:03;2.83;;;0.90;;
65737;SDS011;52478;51.844;6.582;2023-10-31T02:52:22;3.30;;;1.08;;
65737;SDS011;52478;51.844;6.582;2023-10-31T02:54:49;3.88;;;1.10;;
65737;SDS011;52478;51.844;6.582;2023-10-31T02:57:17;4.00;;;1.20;;
65737;SDS011;52478;51.844;6.582;2023-10-31T02:59:44;4.00;;;1.20;;
65737;SDS011;52478;51.844;6.582;2023-10-31T03:02:11;3.50;;;1.02;;
65737;SDS011;52478;51.844;6.582;2023-10-31T03:04:37;4.68;;;1.30;;
65737;SDS011;52478;51.844;6.582;2023-10-31T03:07:04;7.82;;;1.67;;
65737;SDS011;52478;51.844;6.582;2023-10-31T03:09:30;4.75;;;1.45;;
65737;SDS011;52478;51.844;6.582;2023-10-31T03:11:57;4.93;;;1.80;;
65737;SDS011;52478;51.844;6.582;2023-10-31T03:14:25;4.53;;;1.30;;
65737;SDS011;52478;51.844;6.582;2023-10-31T03:16:51;7.28;;;1.60;;
65737;SDS011;52478;51.844;6.582;2023-10-31T03:19:18;8.85;;;1.77;;
65737;SDS011;52478;51.844;6.582;2023-10-31T03:21:44;4.90;;;1.75;;
65737;SDS011;52478;51.844;6.582;2023-10-31T03:24:10;4.88;;;1.52;;
65737;SDS011;52478;51.844;6.582;2023-10-31T03:26:37;4.72;;;1.55;;
65737;SDS011;52478;51.844;6.582;2023-10-31T03:29:03;5.53;;;1.92;;
65737;SDS011;52478;51.844;6.582;2023-10-31T03:31:31;5.80;;;1.92;;
65737;SDS011;52478;51.844;6.582;2023-10-31T03:33:58;6.28;;;1.98;;
65737;SDS011;52478;51.844;6.582;2023-10-31T03:36:24;4.90;;;1.42;;
65737;SDS011;52478;51.844;6.582;2023-10-31T03:38:51;5.07;;;1.40;;
65737;SDS011;52478;51.844;6.582;2023-10-31T03:41:17;6.47;;;2.30;;
65737;SDS011;52478;51.844;6.582;2023-10-31T03:43:43;5.00;;;1.67;;
65737;SDS011;52478;51.844;6.582;2023-10-31T03:46:11;6.07;;;2.00;;
65737;SDS011;52478;51.844;6.582;2023-10-31T03:51:05;5.97;;;1.80;;
65737;SDS011;52478;51.844;6.582;2023-10-31T03:53:31;5.72;;;1.92;;
65737;SDS011;52478;51.844;6.582;2023-10-31T03:55:58;5.60;;;2.20;;
65737;SDS011;52478;51.844;6.582;2023-10-31T03:58:25;6.40;;;2.30;;
65737;SDS011;52478;51.844;6.582;2023-10-31T04:00:51;5.43;;;1.88;;
65737;SDS011;52478;51.844;6.582;2023-10-31T04:03:17;5.95;;;2.38;;
65737;SDS011;52478;51.844;6.582;2023-10-31T04:05:45;7.55;;;2.42;;
65737;SDS011;52478;51.844;6.582;2023-10-31T04:08:12;5.93;;;2.00;;
65737;SDS011;52478;51.844;6.582;2023-10-31T04:10:38;6.90;;;2.40;;
65737;SDS011;52478;51.844;6.582;2023-10-31T04:13:05;6.03;;;2.42;;
65737;SDS011;52478;51.844;6.582;2023-10-31T04:15:31;5.80;;;2.10;;
65737;SDS011;52478;51.844;6.582;2023-10-31T04:17:59;5.75;;;2.50;;
65737;SDS011;52478;51.844;6.582;2023-10-31T04:20:26;5.70;;;2.03;;
65737;SDS011;52478;51.844;6.582;2023-10-31T04:22:54;6.80;;;2.63;;
65737;SDS011;52478;51.844;6.582;2023-10-31T04:25:20;5.68;;;2.30;;
65737;SDS011;52478;51.844;6.582;2023-10-31T04:27:47;7.15;;;2.35;;
65737;SDS011;52478;51.844;6.582;2023-10-31T04:30:15;6.50;;;2.75;;
65737;SDS011;52478;51.844;6.582;2023-10-31T04:32:41;6.00;;;2.08;;
65737;SDS011;52478;51.844;6.582;2023-10-31T04:35:08;6.25;;;2.38;;
65737;SDS011;52478;51.844;6.582;2023-10-31T04:37:35;6.90;;;2.70;;
65737;SDS011;52478;51.844;6.582;2023-10-31T04:40:03;7.13;;;2.42;;
65737;SDS011;52478;51.844;6.582;2023-10-31T04:42:31;6.13;;;2.65;;
65737;SDS011;52478;51.844;6.582;2023-10-31T04:44:58;6.15;;;2.40;;
65737;SDS011;52478;51.844;6.582;2023-10-31T04:47:25;8.27;;;2.60;;
65737;SDS011;52478;51.844;6.582;2023-10-31T04:49:51;6.57;;;2.78;;
65737;SDS011;52478;51.844;6.582;2023-10-31T04:52:18;6.63;;;2.50;;
65737;SDS011;52478;51.844;6.582;2023-10-31T04:54:45;7.85;;;3.15;;
65737;SDS011;52478;51.844;6.582;2023-10-31T04:57:12;6.30;;;2.47;;
65737;SDS011;52478;51.844;6.582;2023-10-31T04:59:39;7.32;;;2.45;;
65737;SDS011;52478;51.844;6.582;2023-10-31T05:02:05;7.15;;;2.47;;
65737;SDS011;52478;51.844;6.582;2023-10-31T05:04:32;8.55;;;2.60;;
65737;SDS011;52478;51.844;6.582;2023-10-31T05:06:58;6.53;;;2.70;;
65737;SDS011;52478;51.844;6.582;2023-10-31T05:09:25;6.75;;;2.33;;
65737;SDS011;52478;51.844;6.582;2023-10-31T05:11:52;7.00;;;2.60;;
65737;SDS011;52478;51.844;6.582;2023-10-31T05:14:20;6.47;;;2.50;;
65737;SDS011;52478;51.844;6.582;2023-10-31T05:16:46;9.80;;;2.13;;
65737;SDS011;52478;51.844;6.582;2023-10-31T05:19:13;7.93;;;2.40;;
65737;SDS011;52478;51.844;6.582;2023-10-31T05:21:39;5.90;;;2.30;;
65737;SDS011;52478;51.844;6.582;2023-10-31T05:24:06;6.38;;;2.17;;
65737;SDS011;52478;51.844;6.582;2023-10-31T05:26:33;6.50;;;2.45;;
65737;SDS011;52478;51.844;6.582;2023-10-31T05:29:00;6.53;;;2.60;;
65737;SDS011;52478;51.844;6.582;2023-10-31T05:31:27;6.22;;;2.10;;
65737;SDS011;52478;51.844;6.582;2023-10-31T05:33:54;6.20;;;2.20;;
65737;SDS011;52478;51.844;6.582;2023-10-31T05:36:21;6.70;;;2.08;;
65737;SDS011;52478;51.844;6.582;2023-10-31T05:38:49;5.63;;;2.10;;
65737;SDS011;52478;51.844;6.582;2023-10-31T05:41:16;5.50;;;2.10;;
65737;SDS011;52478;51.844;6.582;2023-10-31T05:43:42;6.03;;;2.22;;
65737;SDS011;52478;51.844;6.582;2023-10-31T05:46:09;6.13;;;2.03;;
65737;SDS011;52478;51.844;6.582;2023-10-31T05:48:39;7.30;;;2.03;;
65737;SDS011;52478;51.844;6.582;2023-10-31T05:51:10;5.78;;;2.20;;
65737;SDS011;52478;51.844;6.582;2023-10-31T05:53:39;5.50;;;2.05;;
65737;SDS011;52478;51.844;6.582;2023-10-31T05:56:06;5.57;;;2.08;;
65737;SDS011;52478;51.844;6.582;2023-10-31T05:58:34;5.57;;;2.13;;
65737;SDS011;52478;51.844;6.582;2023-10-31T06:01:00;6.15;;;2.08;;
65737;SDS011;52478;51.844;6.582;2023-10-31T06:03:27;7.00;;;1.92;;
65737;SDS011;52478;51.844;6.582;2023-10-31T06:05:55;4.78;;;1.80;;
65737;SDS011;52478;51.844;6.582;2023-10-31T06:08:21;7.28;;;2.10;;
65737;SDS011;52478;51.844;6.582;2023-10-31T06:10:49;5.47;;;2.05;;
65737;SDS011;52478;51.844;6.582;2023-10-31T06:13:15;6.18;;;2.30;;
65737;SDS011;52478;51.844;6.582;2023-10-31T06:15:42;5.40;;;1.80;;
65737;SDS011;52478;51.844;6.582;2023-10-31T06:18:09;6.90;;;1.80;;
65737;SDS011;52478;51.844;6.582;2023-10-31T06:20:36;6.57;;;2.13;;
65737;SDS011;52478;51.844;6.582;2023-10-31T06:23:03;6.05;;;1.80;;
65737;SDS011;52478;51.844;6.582;2023-10-31T06:25:30;5.72;;;1.80;;
65737;SDS011;52478;51.844;6.582;2023-10-31T06:27:57;5.75;;;1.80;;
65737;SDS011;52478;51.844;6.582;2023-10-31T06:30:23;5.60;;;2.10;;
65737;SDS011;52478;51.844;6.582;2023-10-31T06:32:50;6.22;;;2.03;;
65737;SDS011;52478;51.844;6.582;2023-10-31T06:35:17;5.85;;;1.70;;
65737;SDS011;52478;51.844;6.582;2023-10-31T06:37:43;5.55;;;1.77;;
65737;SDS011;52478;51.844;6.582;2023-10-31T06:40:11;5.35;;;1.90;;
65737;SDS011;52478;51.844;6.582;2023-10-31T06:42:38;12.25;;;2.55;;
65737;SDS011;52478;51.844;6.582;2023-10-31T06:45:05;11.95;;;2.47;;
65737;SDS011;52478;51.844;6.582;2023-10-31T06:47:32;9.43;;;2.58;;
65737;SDS011;52478;51.844;6.582;2023-10-31T06:49:58;8.98;;;2.40;;
65737;SDS011;52478;51.844;6.582;2023-10-31T06:52:25;8.10;;;2.30;;
65737;SDS011;52478;51.844;6.582;2023-10-31T06:54:51;7.90;;;2.22;;
65737;SDS011;52478;51.844;6.582;2023-10-31T06:57:19;7.50;;;2.10;;
65737;SDS011;52478;51.844;6.582;2023-10-31T06:59:46;6.53;;;2.40;;
65737;SDS011;52478;51.844;6.582;2023-10-31T07:02:12;11.95;;;3.00;;
65737;SDS011;52478;51.844;6.582;2023-10-31T07:04:39;11.60;;;2.67;;
65737;SDS011;52478;51.844;6.582;2023-10-31T07:07:06;10.10;;;2.67;;
65737;SDS011;52478;51.844;6.582;2023-10-31T07:09:32;11.60;;;2.90;;
65737;SDS011;52478;51.844;6.582;2023-10-31T07:11:59;9.20;;;2.83;;
65737;SDS011;52478;51.844;6.582;2023-10-31T07:14:27;9.13;;;2.80;;
65737;SDS011;52478;51.844;6.582;2023-10-31T07:16:53;8.40;;;2.78;;
65737;SDS011;52478;51.844;6.582;2023-10-31T07:19:20;8.25;;;3.10;;
65737;SDS011;52478;51.844;6.582;2023-10-31T07:21:46;7.90;;;2.53;;
65737;SDS011;52478;51.844;6.582;2023-10-31T07:24:13;7.03;;;2.70;;
65737;SDS011;52478;51.844;6.582;2023-10-31T07:26:39;6.72;;;2.63;;
65737;SDS011;52478;51.844;6.582;2023-10-31T07:29:06;8.20;;;2.55;;
65737;SDS011;52478;51.844;6.582;2023-10-31T07:31:35;7.68;;;3.25;;
65737;SDS011;52478;51.844;6.582;2023-10-31T07:34:03;8.70;;;2.65;;
65737;SDS011;52478;51.844;6.582;2023-10-31T07:36:30;6.13;;;2.63;;
65737;SDS011;52478;51.844;6.582;2023-10-31T07:41:23;8.52;;;3.40;;
65737;SDS011;52478;51.844;6.582;2023-10-31T07:43:50;9.57;;;3.00;;
65737;SDS011;52478;51.844;6.582;2023-10-31T07:46:16;7.70;;;2.65;;
65737;SDS011;52478;51.844;6.582;2023-10-31T07:48:45;7.20;;;2.40;;
65737;SDS011;52478;51.844;6.582;2023-10-31T07:51:12;6.18;;;2.55;;
65737;SDS011;52478;51.844;6.582;2023-10-31T07:53:38;6.10;;;2.20;;
65737;SDS011;52478;51.844;6.582;2023-10-31T07:56:05;6.25;;;2.53;;
65737;SDS011;52478;51.844;6.582;2023-10-31T07:58:40;7.18;;;2.47;;
65737;SDS011;52478;51.844;6.582;2023-10-31T08:01:07;6.40;;;2.35;;
65737;SDS011;52478;51.844;6.582;2023-10-31T08:03:35;7.50;;;2.47;;
65737;SDS011;52478;51.844;6.582;2023-10-31T08:06:05;6.13;;;2.40;;
65737;SDS011;52478;51.844;6.582;2023-10-31T08:08:32;6.22;;;2.42;;
65737;SDS011;52478;51.844;6.582;2023-10-31T08:10:59;6.40;;;2.47;;
65737;SDS011;52478;51.844;6.582;2023-10-31T08:13:26;5.63;;;2.40;;
65737;SDS011;52478;51.844;6.582;2023-10-31T08:15:52;5.70;;;2.72;;
65737;SDS011;52478;51.844;6.582;2023-10-31T08:18:19;7.03;;;2.33;;
65737;SDS011;52478;51.844;6.582;2023-10-31T08:20:45;6.63;;;2.47;;
65737;SDS011;52478;51.844;6.582;2023-10-31T08:23:15;7.82;;;2.75;;
65737;SDS011;52478;51.844;6.582;2023-10-31T08:25:42;6.15;;;2.55;;
65737;SDS011;52478;51.844;6.582;2023-10-31T08:28:09;5.97;;;2.22;;
65737;SDS011;52478;51.844;6.582;2023-10-31T08:30:35;6.78;;;2.35;;
65737;SDS011;52478;51.844;6.582;2023-10-31T08:33:04;6.75;;;2.55;;
65737;SDS011;52478;51.844;6.582;2023-10-31T08:35:31;8.70;;;2.50;;
65737;SDS011;52478;51.844;6.582;2023-10-31T08:37:57;5.93;;;2.70;;
65737;SDS011;52478;51.844;6.582;2023-10-31T08:40:25;7.28;;;2.83;;
65737;SDS011;52478;51.844;6.582;2023-10-31T08:42:52;6.15;;;2.60;;
65737;SDS011;52478;51.844;6.582;2023-10-31T08:45:20;6.00;;;2.63;;
65737;SDS011;52478;51.844;6.582;2023-10-31T08:47:46;6.97;;;2.60;;
65737;SDS011;52478;51.844;6.582;2023-10-31T08:50:13;6.32;;;2.70;;
65737;SDS011;52478;51.844;6.582;2023-10-31T08:52:40;6.53;;;3.13;;
65737;SDS011;52478;51.844;6.582;2023-10-31T08:55:06;5.70;;;2.50;;
65737;SDS011;52478;51.844;6.582;2023-10-31T08:57:34;5.57;;;2.42;;
65737;SDS011;52478;51.844;6.582;2023-10-31T09:00:01;6.43;;;2.60;;
65737;SDS011;52478;51.844;6.582;2023-10-31T09:02:30;5.90;;;2.60;;
65737;SDS011;52478;51.844;6.582;2023-10-31T09:04:56;5.75;;;2.58;;
65737;SDS011;52478;51.844;6.582;2023-10-31T09:07:23;5.68;;;2.63;;
65737;SDS011;52478;51.844;6.582;2023-10-31T09:09:49;6.22;;;2.85;;
65737;SDS011;52478;51.844;6.582;2023-10-31T09:12:16;6.45;;;2.60;;
65737;SDS011;52478;51.844;6.582;2023-10-31T09:14:43;5.65;;;2.45;;
65737;SDS011;52478;51.844;6.582;2023-10-31T09:17:10;5.85;;;2.33;;
65737;SDS011;52478;51.844;6.582;2023-10-31T09:19:37;7.47;;;2.60;;
65737;SDS011;52478;51.844;6.582;2023-10-31T09:22:03;5.53;;;2.30;;
65737;SDS011;52478;51.844;6.582;2023-10-31T09:24:30;6.18;;;2.78;;
65737;SDS011;52478;51.844;6.582;2023-10-31T09:26:56;6.43;;;2.50;;
65737;SDS011;52478;51.844;6.582;2023-10-31T09:29:23;5.32;;;2.25;;
65737;SDS011;52478;51.844;6.582;2023-10-31T09:31:51;5.78;;;2.35;;
65737;SDS011;52478;51.844;6.582;2023-10-31T09:34:17;5.95;;;2.60;;
65737;SDS011;52478;51.844;6.582;2023-10-31T09:36:44;5.82;;;2.30;;
65737;SDS011;52478;51.844;6.582;2023-10-31T09:39:10;5.47;;;2.40;;
65737;SDS011;52478;51.844;6.582;2023-10-31T09:41:37;5.80;;;2.63;;
65737;SDS011;52478;51.844;6.582;2023-10-31T09:44:04;5.32;;;2.33;;
65737;SDS011;52478;51.844;6.582;2023-10-31T09:46:31;5.68;;;2.40;;
65737;SDS011;52478;51.844;6.582;2023-10-31T09:48:59;6.60;;;2.40;;
65737;SDS011;52478;51.844;6.582;2023-10-31T09:51:26;5.40;;;2.30;;
65737;SDS011;52478;51.844;6.582;2023-10-31T09:53:53;5.18;;;2.22;;
65737;SDS011;52478;51.844;6.582;2023-10-31T09:56:21;5.22;;;2.22;;
65737;SDS011;52478;51.844;6.582;2023-10-31T09:58:48;5.63;;;2.67;;
65737;SDS011;52478;51.844;6.582;2023-10-31T10:01:14;5.30;;;2.30;;
65737;SDS011;52478;51.844;6.582;2023-10-31T10:03:41;5.75;;;2.50;;
65737;SDS011;52478;51.844;6.582;2023-10-31T10:06:10;5.55;;;2.50;;
65737;SDS011;52478;51.844;6.582;2023-10-31T10:08:37;6.88;;;2.45;;
65737;SDS011;52478;51.844;6.582;2023-10-31T10:11:05;5.25;;;2.40;;
65737;SDS011;52478;51.844;6.582;2023-10-31T10:13:31;5.50;;;2.53;;
65737;SDS011;52478;51.844;6.582;2023-10-31T10:15:59;6.60;;;2.30;;
65737;SDS011;52478;51.844;6.582;2023-10-31T10:18:26;5.75;;;2.60;;
65737;SDS011;52478;51.844;6.582;2023-10-31T10:23:24;5.50;;;2.30;;
65737;SDS011;52478;51.844;6.582;2023-10-31T10:25:51;5.68;;;2.22;;
65737;SDS011;52478;51.844;6.582;2023-10-31T10:28:19;5.57;;;2.60;;
65737;SDS011;52478;51.844;6.582;2023-10-31T10:30:45;6.03;;;2.47;;
65737;SDS011;52478;51.844;6.582;2023-10-31T10:33:13;6.40;;;2.50;;
65737;SDS011;52478;51.844;6.582;2023-10-31T10:35:39;5.00;;;2.13;;
65737;SDS011;52478;51.844;6.582;2023-10-31T10:38:06;5.85;;;2.47;;
65737;SDS011;52478;51.844;6.582;2023-10-31T10:40:38;6.28;;;2.40;;
65737;SDS011;52478;51.844;6.582;2023-10-31T10:43:07;5.00;;;2.35;;
65737;SDS011;52478;51.844;6.582;2023-10-31T10:45:38;5.43;;;2.47;;
65737;SDS011;52478;51.844;6.582;2023-10-31T10:48:09;5.32;;;2.42;;
65737;SDS011;52478;51.844;6.582;2023-10-31T10:50:38;6.07;;;2.42;;
65737;SDS011;52478;51.844;6.582;2023-10-31T10:53:10;5.40;;;2.40;;
65737;SDS011;52478;51.844;6.582;2023-10-31T10:55:45;5.40;;;2.47;;
65737;SDS011;52478;51.844;6.582;2023-10-31T10:58:13;5.43;;;2.35;;
65737;SDS011;52478;51.844;6.582;2023-10-31T11:00:48;6.75;;;2.63;;
65737;SDS011;52478;51.844;6.582;2023-10-31T11:03:16;5.80;;;2.47;;
65737;SDS011;52478;51.844;6.582;2023-10-31T11:05:45;7.50;;;2.60;;
65737;SDS011;52478;51.844;6.582;2023-10-31T11:08:12;5.35;;;2.53;;
65737;SDS011;52478;51.844;6.582;2023-10-31T11:10:40;5.88;;;2.60;;
65737;SDS011;52478;51.844;6.582;2023-10-31T11:13:09;5.72;;;2.72;;
65737;SDS011;52478;51.844;6.582;2023-10-31T11:15:37;7.43;;;2.67;;
65737;SDS011;52478;51.844;6.582;2023-10-31T11:18:05;5.90;;;2.85;;
65737;SDS011;52478;51.844;6.582;2023-10-31T11:20:32;6.28;;;2.78;;
65737;SDS011;52478;51.844;6.582;2023-10-31T11:23:00;5.78;;;2.58;;
65737;SDS011;52478;51.844;6.582;2023-10-31T11:25:31;5.40;;;2.60;;
65737;SDS011;52478;51.844;6.582;2023-10-31T11:28:11;6.85;;;2.72;;
65737;SDS011;52478;51.844;6.582;2023-10-31T11:30:39;6.88;;;2.63;;
65737;SDS011;52478;51.844;6.582;2023-10-31T11:33:07;6.03;;;2.40;;
65737;SDS011;52478;51.844;6.582;2023-10-31T11:35:38;6.00;;;2.70;;
65737;SDS011;52478;51.844;6.582;2023-10-31T11:38:05;5.70;;;2.55;;
65737;SDS011;52478;51.844;6.582;2023-10-31T11:40:33;7.70;;;2.63;;
65737;SDS011;52478;51.844;6.582;2023-10-31T11:43:02;6.45;;;2.50;;
65737;SDS011;52478;51.844;6.582;2023-10-31T11:45:32;5.82;;;2.60;;
65737;SDS011;52478;51.844;6.582;2023-10-31T11:48:01;6.25;;;2.85;;
65737;SDS011;52478;51.844;6.582;2023-10-31T11:50:29;6.30;;;2.50;;
65737;SDS011;52478;51.844;6.582;2023-10-31T11:52:59;6.07;;;2.50;;
65737;SDS011;52478;51.844;6.582;2023-10-31T11:55:27;8.18;;;2.60;;
65737;SDS011;52478;51.844;6.582;2023-10-31T11:57:55;6.65;;;2.53;;
65737;SDS011;52478;51.844;6.582;2023-10-31T12:00:22;6.55;;;2.80;;
65737;SDS011;52478;51.844;6.582;2023-10-31T12:03:00;6.07;;;2.50;;
65737;SDS011;52478;51.844;6.582;2023-10-31T12:05:27;5.78;;;2.60;;
65737;SDS011;52478;51.844;6.582;2023-10-31T12:07:54;5.90;;;2.55;;
65737;SDS011;52478;51.844;6.582;2023-10-31T12:10:22;7.32;;;2.70;;
65737;SDS011;52478;51.844;6.582;2023-10-31T12:12:49;6.35;;;2.50;;
65737;SDS011;52478;51.844;6.582;2023-10-31T12:15:16;5.75;;;2.60;;
65737;SDS011;52478;51.844;6.582;2023-10-31T12:17:42;6.30;;;2.35;;
65737;SDS011;52478;51.844;6.582;2023-10-31T12:20:11;6.18;;;2.33;;
65737;SDS011;52478;51.844;6.582;2023-10-31T12:22:37;6.00;;;2.60;;
65737;SDS011;52478;51.844;6.582;2023-10-31T12:25:05;6.68;;;2.30;;
65737;SDS011;52478;51.844;6.582;2023-10-31T12:27:41;7.72;;;2.40;;
65737;SDS011;52478;51.844;6.582;2023-10-31T12:30:09;6.57;;;2.58;;
65737;SDS011;52478;51.844;6.582;2023-10-31T12:35:03;6.97;;;2.53;;
65737;SDS011;52478;51.844;6.582;2023-10-31T12:37:31;6.07;;;2.80;;
65737;SDS011;52478;51.844;6.582;2023-10-31T12:39:59;6.97;;;2.78;;
65737;SDS011;52478;51.844;6.582;2023-10-31T12:42:29;5.78;;;2.58;;
65737;SDS011;52478;51.844;6.582;2023-10-31T12:44:57;5.63;;;2.67;;
65737;SDS011;52478;51.844;6.582;2023-10-31T12:50:04;6.18;;;2.50;;
65737;SDS011;52478;51.844;6.582;2023-10-31T12:52:46;5.40;;;2.30;;
65737;SDS011;52478;51.844;6.582;2023-10-31T12:55:14;5.75;;;2.30;;
65737;SDS011;52478;51.844;6.582;2023-10-31T12:57:41;6.68;;;2.17;;
65737;SDS011;52478;51.844;6.582;2023-10-31T13:00:09;5.35;;;2.50;;
65737;SDS011;52478;51.844;6.582;2023-10-31T13:02:37;5.88;;;2.45;;
65737;SDS011;52478;51.844;6.582;2023-10-31T13:07:34;6.43;;;2.38;;
65737;SDS011;52478;51.844;6.582;2023-10-31T13:10:03;5.32;;;2.25;;
65737;SDS011;52478;51.844;6.582;2023-10-31T13:12:30;8.02;;;2.55;;
65737;SDS011;52478;51.844;6.582;2023-10-31T13:14:56;5.60;;;2.30;;
65737;SDS011;52478;51.844;6.582;2023-10-31T13:17:23;5.30;;;2.28;;
65737;SDS011;52478;51.844;6.582;2023-10-31T13:19:49;5.85;;;2.40;;
65737;SDS011;52478;51.844;6.582;2023-10-31T13:22:16;6.45;;;2.25;;
65737;SDS011;52478;51.844;6.582;2023-10-31T13:24:42;7.03;;;2.40;;
65737;SDS011;52478;51.844;6.582;2023-10-31T13:27:10;7.18;;;2.30;;
65737;SDS011;52478;51.844;6.582;2023-10-31T13:29:40;6.32;;;2.60;;
65737;SDS011;52478;51.844;6.582;2023-10-31T13:32:07;5.45;;;2.40;;
65737;SDS011;52478;51.844;6.582;2023-10-31T13:34:33;5.60;;;2.40;;
65737;SDS011;52478;51.844;6.582;2023-10-31T13:37:00;7.70;;;2.60;;
65737;SDS011;52478;51.844;6.582;2023-10-31T13:39:27;5.70;;;2.17;;
65737;SDS011;52478;51.844;6.582;2023-10-31T13:41:54;4.95;;;2.20;;
65737;SDS011;52478;51.844;6.582;2023-10-31T13:44:21;6.80;;;2.65;;
65737;SDS011;52478;51.844;6.582;2023-10-31T13:46:48;6.35;;;2.70;;
65737;SDS011;52478;51.844;6.582;2023-10-31T13:49:14;5.85;;;2.40;;
65737;SDS011;52478;51.844;6.582;2023-10-31T13:51:41;6.07;;;2.17;;
65737;SDS011;52478;51.844;6.582;2023-10-31T13:54:07;6.07;;;2.20;;
65737;SDS011;52478;51.844;6.582;2023-10-31T13:56:34;5.75;;;2.08;;
65737;SDS011;52478;51.844;6.582;2023-10-31T13:59:01;6.50;;;2.25;;
65737;SDS011;52478;51.844;6.582;2023-10-31T14:01:29;5.75;;;2.40;;
65737;SDS011;52478;51.844;6.582;2023-10-31T14:03:55;6.40;;;2.47;;
65737;SDS011;52478;51.844;6.582;2023-10-31T14:06:22;6.40;;;2.40;;
65737;SDS011;52478;51.844;6.582;2023-10-31T14:08:50;6.53;;;2.40;;
65737;SDS011;52478;51.844;6.582;2023-10-31T14:16:10;5.90;;;2.20;;
65737;SDS011;52478;51.844;6.582;2023-10-31T14:18:38;5.82;;;2.40;;
65737;SDS011;52478;51.844;6.582;2023-10-31T14:21:06;6.22;;;2.25;;
65737;SDS011;52478;51.844;6.582;2023-10-31T14:23:32;5.20;;;2.45;;
65737;SDS011;52478;51.844;6.582;2023-10-31T14:25:59;5.68;;;2.53;;
65737;SDS011;52478;51.844;6.582;2023-10-31T14:28:25;6.10;;;2.40;;
65737;SDS011;52478;51.844;6.582;2023-10-31T14:30:52;6.30;;;2.22;;
65737;SDS011;52478;51.844;6.582;2023-10-31T14:33:19;5.95;;;2.45;;
65737;SDS011;52478;51.844;6.582;2023-10-31T14:35:47;5.57;;;2.45;;
65737;SDS011;52478;51.844;6.582;2023-10-31T14:38:13;5.45;;;2.42;;
65737;SDS011;52478;51.844;6.582;2023-10-31T14:43:07;5.38;;;2.30;;
65737;SDS011;52478;51.844;6.582;2023-10-31T14:45:33;5.50;;;2.20;;
65737;SDS011;52478;51.844;6.582;2023-10-31T14:48:00;5.70;;;2.15;;
65737;SDS011;52478;51.844;6.582;2023-10-31T14:50:26;6.45;;;2.25;;
65737;SDS011;52478;51.844;6.582;2023-10-31T14:52:54;5.43;;;2.33;;
65737;SDS011;52478;51.844;6.582;2023-10-31T14:55:21;5.50;;;2.45;;
65737;SDS011;52478;51.844;6.582;2023-10-31T14:57:47;9.85;;;2.50;;
65737;SDS011;52478;51.844;6.582;2023-10-31T15:00:14;6.32;;;2.25;;
65737;SDS011;52478;51.844;6.582;2023-10-31T15:02:41;5.78;;;2.10;;
65737;SDS011;52478;51.844;6.582;2023-10-31T15:05:07;5.20;;;2.13;;
65737;SDS011;52478;51.844;6.582;2023-10-31T15:07:35;5.97;;;2.00;;
65737;SDS011;52478;51.844;6.582;2023-10-31T15:10:04;5.80;;;2.10;;
65737;SDS011;52478;51.844;6.582;2023-10-31T15:12:31;4.95;;;2.10;;
65737;SDS011;52478;51.844;6.582;2023-10-31T15:14:58;5.65;;;2.10;;
65737;SDS011;52478;51.844;6.582;2023-10-31T15:17:24;7.43;;;2.20;;
65737;SDS011;52478;51.844;6.582;2023-10-31T15:19:51;5.20;;;2.05;;
65737;SDS011;52478;51.844;6.582;2023-10-31T15:22:17;5.53;;;2.10;;
65737;SDS011;52478;51.844;6.582;2023-10-31T15:24:44;5.68;;;2.10;;